aviador You're here:

KVSF Decoded Metar

SPRINGFIELD in VT, USA
Report Time2018-05-23 15:54:00
UTC Time2018-05-23 16:34:22
Flight Rules vfr VFR
Wind260° at 08 kt
W.Decomp.*RWY 29: 7.7 kt HW 2.1 kt LCW
RWY 23: 5.7 kt HW 5.7 kt RCW
W.Rank260° ranks 6
Current wind is above 260° avg. (7.8)
Visibility9999 m
Phenomena:N/A
Clouds:N/A
Expected CloudBase > 4,400 ft AGL from Temp-Dew spread
CeilingNone
Temp23°C (ISA +9)
Dew Point12°C (50% RH)
AAT20.7°C
QNH1013 hPa
Density Alt1,827 ft
Elevation574 ft
Report Wrong Elevation
Raw Report
KVSF 231554Z AUTO 26008KT 10SM CLR 23/12 A2990 RMK AO2 SLP124
T02330117=

Extra information for KVSF:More info

Metar Taf Metar & Taf Last 4 Metars F.Rules Stats Wind Profile Meteogram Temp Stats Airport Information Weather charts Add Link Nearby VenuesMetar ALERT Operation Metar Decoded Social comments

AIRNAV info for KVSF